KBIE/BIE METAR and TAF weather

Enter ICAO airport designator
Station Type Date Time Source
KBIE METAR 2020/09/24 09:55 UTC NOAA

KBIE 240955Z AUTO 18009KT 10SM CLR 16/15 A2989 RMK AO2 T01610148


Station Type Date Time Source
KBIE Decoded METAR 2020/09/24 09:55 UTC NOAA

Beatrice Municipal, NE, United States (KBIE) 40-18N 096-45W
Sep 24, 2020 - 05:55 AM EDT / 2020.09.24 0955 UTC
Wind: from the S (180 degrees) at 10 MPH (9 KT):0
Visibility: 10 mile(s):0
Sky conditions: clear
Temperature: 61.0 F (16.1 C)
Dew Point: 58.6 F (14.8 C)
Relative Humidity: 91%
Pressure (altimeter): 29.89 in. Hg (1012 hPa)
ob: KBIE 240955Z AUTO 18009KT 10SM CLR 16/15 A2989 RMK AO2 T01610148
cycle: 10

Station Type Date Time Source
KBIE TAF UTC NOAA

Error!

Example: see airport list